CL37 weather

Enloe Hospital Heliport
Chico, California, United States

Public forecast

Using degrees Fahrenheit for public forecast. Weather courtesy of forecast.io.

Closest aviation weather report (METAR) to Enloe Hospital Heliport

Closest report is Chico Municipal Airport, 3.2 nm (6.0 km) N. Retrieved 2019/10/17 09:35 UTC (0 seconds ago):

KCIC 170935Z AUTO 14008KT 10SM BKN060 15/09 A2984 RMK AO1

Closest aviation forecast (TAF) to Enloe Hospital Heliport

Closest forecast is Red Bluff Municipal Airport, 30.7 nm (56.9 km) NW. Retrieved 2019/10/17 06:22 UTC (3 hours ago):

TAF KRBL 170520Z 1706/1806 28005KT P6SM OVC090 TEMPO 1706/1707 P6SM -SHRA BKN070 FM170700 34004KT P6SM VCSH BKN050 OVC100 FM171200 VRB03KT P6SM BKN100 FM171800 35006KT P6SM SCT100